Béziers-Vias Airport

LFMU · Hérault, Occitanie, Frankreich

METAR-Geschichte LFMU · Flughafen Béziers

Unten siehst du die METARs der letzten paar Tage. Wähle ein Jahr, um ältere METARs ab dem Jahr 2007 zu durchsuchen.

19. Mai 2024

Uhrzeit Code Wetter Temp. Sichtweite Wolkendecke Wind METAR/SPECI
09:30
V
17 °C 10 km+ - Var Var 2 kt METAR LFMU 190730Z AUTO VRB02KT CAVOK 17/14 Q1013 NOSIG
09:00
V
16 °C 10 km+ - 360° 360° 0 kt METAR LFMU 190700Z AUTO 00000KT CAVOK 16/14 Q1013 NOSIG
08:30
V
15 °C 10 km+ - Var Var 2 kt METAR LFMU 190630Z AUTO VRB02KT CAVOK 15/14 Q1012 NOSIG
08:00
V
14 °C 10 km+ - 320° 320° 3 kt METAR LFMU 190600Z AUTO 32003KT CAVOK 14/13 Q1012 NOSIG
07:30
V
13 °C 10 km+ - Var Var 2 kt METAR LFMU 190530Z AUTO VRB02KT CAVOK 13/12 Q1012 NOSIG
07:00
V
12 °C 10 km+ - 340° 340° 2 kt METAR LFMU 190500Z AUTO 34002KT CAVOK 12/11 Q1012 NOSIG
06:30
V
11 °C 10 km+ - 290° 290° 3 kt METAR LFMU 190430Z AUTO 29003KT CAVOK 11/10 Q1012 NOSIG
06:00
V
11 °C 10 km+ - 300° 300° 3 kt METAR LFMU 190400Z AUTO 30003KT CAVOK 11/11 Q1011 NOSIG
05:30
V
11 °C 10 km+ - Var Var 2 kt METAR LFMU 190330Z AUTO VRB02KT CAVOK 11/11 Q1011 NOSIG
05:00
V
11 °C 10 km+ - Var Var 2 kt METAR LFMU 190300Z AUTO VRB02KT CAVOK 11/11 Q1011 NOSIG
04:30
V
12 °C 10 km+ - 330° 330° 3 kt METAR LFMU 190230Z AUTO 33003KT CAVOK 12/11 Q1012 NOSIG
04:00
V
12 °C 10 km+ - 360° 360° 4 kt METAR LFMU 190200Z AUTO 36004KT CAVOK 12/11 Q1012
03:30
V
12 °C 10 km+ - Var Var 2 kt METAR LFMU 190130Z AUTO VRB02KT CAVOK 12/11 Q1012
03:00
V
12 °C 10 km+ - Var Var 2 kt METAR LFMU 190100Z AUTO VRB02KT CAVOK 12/11 Q1012
02:30
V
12 °C 10 km+ - Var Var 2 kt METAR LFMU 190030Z AUTO VRB02KT CAVOK 12/12 Q1012
02:00
V
13 °C 10 km+ - 360° 360° 3 kt METAR LFMU 190000Z AUTO 36003KT CAVOK 13/12 Q1013
01:30
V
13 °C 10 km+ - 340° 340° 4 kt METAR LFMU 182330Z AUTO 34004KT 300V360 CAVOK 13/12 Q1013
01:00
V
13 °C 10 km+ - Var Var 2 kt METAR LFMU 182300Z AUTO VRB02KT CAVOK 13/12 Q1013
00:30
V
13 °C 10 km+ - 360° 360° 0 kt METAR LFMU 182230Z AUTO 00000KT CAVOK 13/12 Q1013
00:00
V
14 °C 10 km+ - 360° 360° 0 kt METAR LFMU 182200Z AUTO 00000KT CAVOK 14/13 Q1013

18. Mai 2024

Uhrzeit Code Wetter Temp. Sichtweite Wolkendecke Wind METAR/SPECI
23:30
V
14 °C 10 km+ - 350° 350° 1 kt METAR LFMU 182130Z AUTO 35001KT CAVOK 14/13 Q1013
23:00
V
15 °C 10 km+ - 010° 010° 1 kt METAR LFMU 182100Z AUTO 01001KT CAVOK 15/13 Q1013
22:30
V
16 °C 10 km+ - 140° 140° 2 kt METAR LFMU 182030Z AUTO 14002KT CAVOK 16/13 Q1013 NOSIG
22:00
V
17 °C 10 km+ - 120° 120° 2 kt METAR LFMU 182000Z AUTO 12002KT CAVOK 17/13 Q1012 NOSIG
21:30
V
17 °C 10 km+ - 360° 360° 0 kt METAR LFMU 181930Z AUTO 00000KT CAVOK 17/14 Q1012 NOSIG
21:00
V
18 °C 10 km+ - 190° 190° 4 kt METAR LFMU 181900Z AUTO 19004KT 160V220 CAVOK 18/13 Q1012 NOSIG
20:30
V
18 °C 10 km+ - 190° 190° 7 kt METAR LFMU 181830Z AUTO 19007KT CAVOK 18/13 Q1012 NOSIG
20:00
V
19 °C 10 km+ - 180° 180° 8 kt METAR LFMU 181800Z AUTO 18008KT CAVOK 19/13 Q1012 NOSIG
19:30
V
19 °C 10 km+ - 180° 180° 8 kt METAR LFMU 181730Z AUTO 18008KT CAVOK 19/13 Q1012 NOSIG
19:00
V
20 °C 10 km+ - 180° 180° 8 kt METAR LFMU 181700Z AUTO 18008KT 140V200 CAVOK 20/12 Q1011 NOSIG
18:30
V
20 °C 10 km+ - 160° 160° 9 kt METAR LFMU 181630Z AUTO 16009KT CAVOK 20/13 Q1011 NOSIG
18:00
V
20 °C 10 km+ - 170° 170° 10 kt METAR LFMU 181600Z AUTO 17010KT 9999 ///TCU 20/13 Q1011 BECMG FEW036
17:30
V
20 °C 10 km+ - 150° 150° 9 kt METAR LFMU 181530Z AUTO 15009KT 110V180 CAVOK 20/12 Q1012 NOSIG
17:00
V
21 °C 10 km+ - 140° 140° 9 kt METAR LFMU 181500Z AUTO 14009KT 100V180 9999 //////TCU 21/11 Q1012 TEMPO FEW036 FEW040CB
16:30
V
21 °C 10 km+ - 160° 160° 10 kt METAR LFMU 181430Z AUTO 16010KT 130V190 CAVOK 21/11 Q1012 TEMPO FEW036 FEW040CB
16:00
V
21 °C 10 km+ - 170° 170° 10 kt METAR LFMU 181400Z AUTO 17010KT 130V190 CAVOK 21/13 Q1012 NOSIG
15:30
V
22 °C 10 km+ - 170° 170° 8 kt METAR LFMU 181330Z AUTO 17008KT 130V200 CAVOK 22/12 Q1012 NOSIG
15:00
V
22 °C 10 km+ - 190° 190° 6 kt METAR LFMU 181300Z AUTO 19006KT 150V250 CAVOK 22/13 Q1012 NOSIG
14:30
V
22 °C 10 km+ - 250° 250° 5 kt METAR LFMU 181230Z AUTO 25005KT 180V300 CAVOK 22/11 Q1012 NOSIG
14:00
V
22 °C 10 km+ - Var Var 3 kt METAR LFMU 181200Z AUTO VRB03KT 9999 FEW038 22/12 Q1012 TEMPO TSRA BKN023 FEW033CB BKN036
13:30
V
21 °C 10 km+ 3.600 ft 220° 220° 5 kt METAR LFMU 181130Z AUTO 22005KT 140V290 9999 BKN036 21/12 Q1013 TEMPO TSRA BKN023 FEW033CB BKN036
13:00
V
20 °C 10 km+ - Var Var 3 kt METAR LFMU 181100Z AUTO VRB03KT CAVOK 20/13 Q1013 TEMPO TSRA BKN023 FEW033CB BKN036
12:30
V
19 °C 10 km+ - 240° 240° 4 kt METAR LFMU 181030Z AUTO 24004KT 180V290 CAVOK 19/14 Q1013 TEMPO TSRA BKN023 FEW033CB BKN036
12:00
V
18 °C 10 km+ - 260° 260° 5 kt METAR LFMU 181000Z AUTO 26005KT 210V330 CAVOK 18/14 Q1013 TEMPO TSRA BKN023 FEW033CB BKN036
11:30
V
16 °C 10 km+ - 240° 240° 7 kt METAR LFMU 180930Z AUTO 24007KT 200V260 9999 FEW013 16/14 Q1013 TEMPO TSRA BKN023 FEW033CB BKN036
11:00
V
17 °C 10 km+ - 260° 260° 10 kt METAR LFMU 180900Z AUTO 26010KT 230V290 9999 FEW020/// SCT200/// ///TCU 17/14 Q1013 TEMPO TSRA BKN023 FEW033CB BKN036
10:30
V
17 °C 10 km+ - 280° 280° 3 kt METAR LFMU 180830Z AUTO 28003KT 220V320 CAVOK 17/14 Q1012 TEMPO TSRA BKN023 FEW033CB BKN036
10:00
V
17 °C 10 km+ - 360° 360° 4 kt METAR LFMU 180800Z AUTO 36004KT 300V050 CAVOK 17/14 Q1012 TEMPO TSRA BKN015 BKN070 FEW070CB
09:30
V
15 °C 10 km+ - 320° 320° 5 kt METAR LFMU 180730Z AUTO 32005KT 280V020 CAVOK 15/13 Q1012 TEMPO TSRA BKN015 BKN070 FEW070CB
09:00
V
14 °C 10 km+ - 340° 340° 8 kt METAR LFMU 180700Z AUTO 34008KT 310V010 CAVOK 14/13 Q1012 TEMPO TSRA BKN015 BKN070 FEW070CB
08:30
V
13 °C 10 km+ 9.400 ft 340° 340° 5 kt METAR LFMU 180630Z AUTO 34005KT 310V010 9999 FEW025/// SCT078/// BKN094/// ///TCU 13/13 Q1012 TEMPO TSRA BKN015 BKN070 FEW070CB
08:00
V
13 °C 10 km+ - 290° 290° 10 kt METAR LFMU 180600Z AUTO 29010KT 9999 //////CB 13/13 Q1012 TEMPO TSRA
07:30
V
13 °C 10 km+ - 290° 290° 6 kt METAR LFMU 180530Z AUTO 29006KT 9999 ///CB 13/13 Q1012 BECMG BKN015
07:00
V
13 °C 10 km+ - 280° 280° 6 kt METAR LFMU 180500Z AUTO 28006KT CAVOK 13/13 Q1011 NOSIG
06:30
V
12 °C 10 km+ - 260° 260° 5 kt METAR LFMU 180430Z AUTO 26005KT CAVOK 12/12 Q1011 NOSIG
06:00
V
12 °C 10 km+ - 360° 360° 0 kt METAR LFMU 180400Z AUTO 00000KT CAVOK 12/11 Q1011 NOSIG
05:30
V
12 °C 10 km+ - 310° 310° 2 kt METAR LFMU 180330Z AUTO 31002KT CAVOK 12/11 Q1011 NOSIG
05:00
V
13 °C 10 km+ - Var Var 2 kt METAR LFMU 180300Z AUTO VRB02KT CAVOK 13/12 Q1011 NOSIG
04:30
V
13 °C 10 km+ - 260° 260° 6 kt METAR LFMU 180230Z AUTO 26006KT CAVOK 13/12 Q1011
04:00
V
13 °C 10 km+ - 290° 290° 4 kt METAR LFMU 180200Z AUTO 29004KT 9999 FEW047/// SCT086/// //////CB 13/12 Q1011
03:30
V
13 °C 10 km+ 4.100 ft 010° 010° 3 kt METAR LFMU 180130Z AUTO 01003KT 310V060 9999 OVC041/// //////CB 13/13 Q1010
03:00
V
13 °C 10 km+ 3.400 ft 010° 010° 6 kt METAR LFMU 180100Z AUTO 01006KT 9999 FEW015/// BKN034/// OVC040/// ///CB 13/13 Q1010
02:30
I
14 °C 4,9 km 2.800 ft 330° 330° 14 kt METAR LFMU 180030Z AUTO 33014KT 9999 4900 RA VCTS FEW008/// SCT012/// OVC028/// ///CB 14/13 Q1011
02:00
I
18 °C 10 km+ 800 ft 150° 150° 9 kt METAR LFMU 180000Z AUTO 15009KT 120V190 9999 VCTS OVC008/// ///CB 18/16 Q1010
01:30
M
18 °C 10 km+ 1.000 ft 130° 130° 8 kt METAR LFMU 172330Z AUTO 13008KT 100V160 9999 BKN010/// OVC016/// //////CB 18/16 Q1010
01:00
M
18 °C 10 km+ 1.400 ft 130° 130° 8 kt METAR LFMU 172300Z AUTO 13008KT 100V160 9999 BKN014/// OVC022/// //////CB 18/16 Q1010
00:30
M
18 °C 10 km+ 2.200 ft 130° 130° 8 kt METAR LFMU 172230Z AUTO 13008KT 9999 FEW009/// OVC022/// ///CB 18/16 Q1010
00:00
M
18 °C 10 km+ 1.000 ft 120° 120° 10 kt METAR LFMU 172200Z AUTO 12010KT 9999 BKN010/// OVC018/// //////CB 18/17 Q1011

17. Mai 2024

Uhrzeit Code Wetter Temp. Sichtweite Wolkendecke Wind METAR/SPECI
23:30
M
18 °C 10 km+ 1.300 ft 110° 110° 9 kt METAR LFMU 172130Z AUTO 11009KT 9999 BKN013/// BKN024/// BKN032/// ///CB 18/17 Q1011
23:00
I
18 °C 2,7 km 1.200 ft 110° 110° 8 kt METAR LFMU 172100Z AUTO 11008KT 9999 2700 RA BKN012/// BKN020/// BKN052/// //////CB 18/16 Q1011
22:30
M
18 °C 10 km+ 1.100 ft 110° 110° 9 kt METAR LFMU 172030Z AUTO 11009KT 090V150 9999 BKN011 OVC130 18/16 Q1011 TEMPO VRB15G25KT 2000 TSRA BKN014 FEW020CB BKN020
22:00
M
18 °C 10 km+ 1.200 ft 100° 100° 8 kt METAR LFMU 172000Z AUTO 10008KT 9999 BKN012 BKN019 BKN024 18/16 Q1010 TEMPO 4500 SHRA BKN014 FEW020CB BKN020
21:30
M
18 °C 10 km+ 1.300 ft 110° 110° 7 kt METAR LFMU 171930Z AUTO 11007KT 9999 BKN013 BKN019 BKN026 18/16 Q1010 TEMPO 4500 SHRA BKN014 FEW020CB BKN020
21:00
M
18 °C 10 km+ 1.300 ft 100° 100° 9 kt METAR LFMU 171900Z AUTO 10009KT 9999 BKN013 BKN021 OVC026 18/16 Q1010 TEMPO 4500 SHRA BKN014 FEW020CB BKN020
20:30
M
18 °C 10 km+ 1.500 ft 100° 100° 11 kt METAR LFMU 171830Z AUTO 10011KT 9999 BKN015 BKN021 18/16 Q1010 TEMPO 4500 SHRA BKN014 FEW020CB BKN020
20:00
M
19 °C 10 km+ 1.800 ft 100° 100° 10 kt METAR LFMU 171800Z AUTO 10010KT 080V140 9999 BKN018 19/16 Q1010 NOSIG
19:30
M
19 °C 10 km+ 1.600 ft 100° 100° 12 kt METAR LFMU 171730Z AUTO 10012KT 9999 BKN016 BKN022 19/15 Q1009 NOSIG
19:00
V
19 °C 10 km+ - 100° 100° 11 kt METAR LFMU 171700Z AUTO 10011KT 9999 SCT014 19/15 Q1010 NOSIG
18:30
V
19 °C 10 km+ - 110° 110° 10 kt METAR LFMU 171630Z AUTO 11010KT 9999 FEW016/// //////TCU 19/16 Q1010 BECMG SCT020
18:00
V
19 °C 10 km+ - 100° 100° 9 kt METAR LFMU 171600Z AUTO 10009KT 9999 FEW015/// //////CB 19/15 Q1010 BECMG SCT020
17:30
V
19 °C 10 km+ - 090° 090° 11 kt METAR LFMU 171530Z AUTO 09011KT 9999 FEW020/// //////CB 19/15 Q1010 BECMG SCT020
17:00
M
20 °C 10 km+ 2.100 ft 090° 090° 12 kt METAR LFMU 171500Z AUTO 09012KT 9999 BKN021 20/15 Q1010 NOSIG
16:30
M
20 °C 10 km+ 2.100 ft 110° 110° 12 kt METAR LFMU 171430Z AUTO 11012KT 9999 BKN021 20/15 Q1010 NOSIG
16:00
V
21 °C 10 km+ - 110° 110° 11 kt METAR LFMU 171400Z AUTO 11011KT 070V140 9999 SCT024 SCT029 21/14 Q1010 NOSIG
15:30
M
20 °C 10 km+ 2.700 ft 110° 110° 9 kt METAR LFMU 171330Z AUTO 11009KT 060V170 9999 BKN027 BKN048 20/14 Q1010 NOSIG
15:00
V
20 °C 10 km+ - 120° 120° 9 kt METAR LFMU 171300Z AUTO 12009KT 080V180 9999 FEW028 20/14 Q1010 NOSIG
14:30
V
20 °C 10 km+ - 140° 140° 9 kt METAR LFMU 171230Z AUTO 14009KT 080V170 9999 FEW030 20/12 Q1010 NOSIG
14:00
V
20 °C 10 km+ - 110° 110° 10 kt METAR LFMU 171200Z AUTO 11010KT 080V140 9999 FEW029 20/13 Q1010 NOSIG
13:30
V
20 °C 10 km+ - 110° 110° 10 kt METAR LFMU 171130Z AUTO 11010KT 070V140 9999 FEW029 20/12 Q1011 NOSIG
13:00
V
20 °C 10 km+ - 120° 120° 10 kt METAR LFMU 171100Z AUTO 12010KT 090V160 9999 FEW033 20/12 Q1011 NOSIG
12:30
V
19 °C 10 km+ - 110° 110° 10 kt METAR LFMU 171030Z AUTO 11010KT 080V150 CAVOK 19/11 Q1011 NOSIG
12:00
V
19 °C 10 km+ - 110° 110° 10 kt METAR LFMU 171000Z AUTO 11010KT 080V140 CAVOK 19/11 Q1011 NOSIG
11:30
V
19 °C 10 km+ - 100° 100° 9 kt METAR LFMU 170930Z AUTO 10009KT 070V150 CAVOK 19/11 Q1011 NOSIG
11:00
V
18 °C 10 km+ - 110° 110° 6 kt METAR LFMU 170900Z AUTO 11006KT 070V170 CAVOK 18/11 Q1010 NOSIG
10:30
V
18 °C 10 km+ - 090° 090° 7 kt METAR LFMU 170830Z AUTO 09007KT 050V140 CAVOK 18/10 Q1010 NOSIG
10:00
V
17 °C 10 km+ - 090° 090° 6 kt METAR LFMU 170800Z AUTO 09006KT 050V130 CAVOK 17/11 Q1010 TEMPO 30010KT
09:30
V
16 °C 10 km+ - 080° 080° 8 kt METAR LFMU 170730Z AUTO 08008KT CAVOK 16/11 Q1010 TEMPO 30010KT
09:00
V
15 °C 10 km+ - 050° 050° 4 kt METAR LFMU 170700Z AUTO 05004KT 020V090 CAVOK 15/11 Q1010 BECMG 30010KT
08:30
V
14 °C 10 km+ - 030° 030° 6 kt METAR LFMU 170630Z AUTO 03006KT CAVOK 14/10 Q1010 BECMG 30010KT
08:00
V
12 °C 10 km+ - 030° 030° 6 kt METAR LFMU 170600Z AUTO 03006KT CAVOK 12/10 Q1009 BECMG 30010KT
Eine Änderung melden